sensor_id;sensor_type;location;lat;lon;timestamp;P1;durP1;ratioP1;P2;durP2;ratioP2
52318;SDS011;38258;51.148;14.068;2023-02-28T00:00:29;4.18;;;2.67;;
52318;SDS011;38258;51.148;14.068;2023-02-28T00:02:56;4.72;;;2.67;;
52318;SDS011;38258;51.148;14.068;2023-02-28T00:05:23;5.45;;;3.13;;
52318;SDS011;38258;51.148;14.068;2023-02-28T00:07:51;6.55;;;2.63;;
52318;SDS011;38258;51.148;14.068;2023-02-28T00:10:19;4.63;;;2.83;;
52318;SDS011;38258;51.148;14.068;2023-02-28T00:12:49;5.65;;;3.15;;
52318;SDS011;38258;51.148;14.068;2023-02-28T00:15:16;4.70;;;2.53;;
52318;SDS011;38258;51.148;14.068;2023-02-28T00:17:43;6.13;;;2.30;;
52318;SDS011;38258;51.148;14.068;2023-02-28T00:20:11;4.18;;;2.38;;
52318;SDS011;38258;51.148;14.068;2023-02-28T00:22:39;4.57;;;2.75;;
52318;SDS011;38258;51.148;14.068;2023-02-28T00:25:08;6.43;;;2.50;;
52318;SDS011;38258;51.148;14.068;2023-02-28T00:27:36;6.30;;;3.17;;
52318;SDS011;38258;51.148;14.068;2023-02-28T00:30:08;5.53;;;2.70;;
52318;SDS011;38258;51.148;14.068;2023-02-28T00:32:37;5.82;;;2.97;;
52318;SDS011;38258;51.148;14.068;2023-02-28T00:35:04;2.00;;;1.80;;
52318;SDS011;38258;51.148;14.068;2023-02-28T00:37:32;5.43;;;2.30;;
52318;SDS011;38258;51.148;14.068;2023-02-28T00:39:59;4.05;;;2.60;;
52318;SDS011;38258;51.148;14.068;2023-02-28T00:42:26;3.80;;;2.17;;
52318;SDS011;38258;51.148;14.068;2023-02-28T00:44:53;5.20;;;2.90;;
52318;SDS011;38258;51.148;14.068;2023-02-28T00:47:21;6.88;;;2.60;;
52318;SDS011;38258;51.148;14.068;2023-02-28T00:49:49;5.93;;;3.00;;
52318;SDS011;38258;51.148;14.068;2023-02-28T00:52:15;3.88;;;2.60;;
52318;SDS011;38258;51.148;14.068;2023-02-28T00:54:42;4.88;;;2.72;;
52318;SDS011;38258;51.148;14.068;2023-02-28T00:57:08;4.43;;;2.55;;
52318;SDS011;38258;51.148;14.068;2023-02-28T00:59:35;7.30;;;3.45;;
52318;SDS011;38258;51.148;14.068;2023-02-28T01:02:02;7.10;;;3.42;;
52318;SDS011;38258;51.148;14.068;2023-02-28T01:04:29;3.25;;;2.13;;
52318;SDS011;38258;51.148;14.068;2023-02-28T01:06:59;3.58;;;2.15;;
52318;SDS011;38258;51.148;14.068;2023-02-28T01:09:27;4.10;;;2.70;;
52318;SDS011;38258;51.148;14.068;2023-02-28T01:11:54;7.55;;;2.78;;
52318;SDS011;38258;51.148;14.068;2023-02-28T01:14:20;2.65;;;2.08;;
52318;SDS011;38258;51.148;14.068;2023-02-28T01:16:47;5.00;;;2.35;;
52318;SDS011;38258;51.148;14.068;2023-02-28T01:19:13;2.88;;;2.03;;
52318;SDS011;38258;51.148;14.068;2023-02-28T01:21:41;3.72;;;2.17;;
52318;SDS011;38258;51.148;14.068;2023-02-28T01:24:08;4.47;;;2.80;;
52318;SDS011;38258;51.148;14.068;2023-02-28T01:26:34;6.93;;;2.72;;
52318;SDS011;38258;51.148;14.068;2023-02-28T01:29:01;5.38;;;2.75;;
52318;SDS011;38258;51.148;14.068;2023-02-28T01:31:28;4.57;;;2.03;;
52318;SDS011;38258;51.148;14.068;2023-02-28T01:33:54;2.80;;;2.22;;
52318;SDS011;38258;51.148;14.068;2023-02-28T01:36:22;2.70;;;1.98;;
52318;SDS011;38258;51.148;14.068;2023-02-28T01:38:51;2.53;;;1.98;;
52318;SDS011;38258;51.148;14.068;2023-02-28T01:41:20;5.05;;;2.13;;
52318;SDS011;38258;51.148;14.068;2023-02-28T01:43:53;3.92;;;1.73;;
52318;SDS011;38258;51.148;14.068;2023-02-28T01:46:25;5.55;;;2.42;;
52318;SDS011;38258;51.148;14.068;2023-02-28T01:48:54;2.13;;;1.50;;
52318;SDS011;38258;51.148;14.068;2023-02-28T01:51:27;3.38;;;2.28;;
52318;SDS011;38258;51.148;14.068;2023-02-28T01:54:01;4.00;;;2.13;;
52318;SDS011;38258;51.148;14.068;2023-02-28T01:56:32;4.07;;;2.28;;
52318;SDS011;38258;51.148;14.068;2023-02-28T01:59:01;4.75;;;2.70;;
52318;SDS011;38258;51.148;14.068;2023-02-28T02:01:29;2.35;;;1.65;;
52318;SDS011;38258;51.148;14.068;2023-02-28T02:04:00;3.60;;;1.95;;
52318;SDS011;38258;51.148;14.068;2023-02-28T02:06:29;3.95;;;2.40;;
52318;SDS011;38258;51.148;14.068;2023-02-28T02:09:01;4.28;;;2.13;;
52318;SDS011;38258;51.148;14.068;2023-02-28T02:11:28;4.40;;;2.58;;
52318;SDS011;38258;51.148;14.068;2023-02-28T02:14:00;1.63;;;1.50;;
52318;SDS011;38258;51.148;14.068;2023-02-28T02:16:41;2.85;;;1.90;;
52318;SDS011;38258;51.148;14.068;2023-02-28T02:19:25;3.08;;;2.25;;
52318;SDS011;38258;51.148;14.068;2023-02-28T02:22:19;2.53;;;1.60;;
52318;SDS011;38258;51.148;14.068;2023-02-28T02:25:06;3.40;;;2.10;;
52318;SDS011;38258;51.148;14.068;2023-02-28T02:27:47;1.65;;;1.42;;
52318;SDS011;38258;51.148;14.068;2023-02-28T02:33:40;2.13;;;1.85;;
52318;SDS011;38258;51.148;14.068;2023-02-28T02:36:45;1.95;;;1.83;;
52318;SDS011;38258;51.148;14.068;2023-02-28T02:39:19;3.30;;;1.77;;
52318;SDS011;38258;51.148;14.068;2023-02-28T02:41:51;2.40;;;2.17;;
52318;SDS011;38258;51.148;14.068;2023-02-28T02:44:20;3.80;;;2.15;;
52318;SDS011;38258;51.148;14.068;2023-02-28T02:46:51;3.78;;;2.65;;
52318;SDS011;38258;51.148;14.068;2023-02-28T02:49:22;8.20;;;2.47;;
52318;SDS011;38258;51.148;14.068;2023-02-28T02:51:55;2.88;;;1.75;;
52318;SDS011;38258;51.148;14.068;2023-02-28T02:54:28;2.97;;;2.28;;
52318;SDS011;38258;51.148;14.068;2023-02-28T02:57:00;2.03;;;1.70;;
52318;SDS011;38258;51.148;14.068;2023-02-28T02:59:30;3.53;;;1.85;;
52318;SDS011;38258;51.148;14.068;2023-02-28T03:01:59;2.13;;;1.92;;
52318;SDS011;38258;51.148;14.068;2023-02-28T03:04:30;1.98;;;1.45;;
52318;SDS011;38258;51.148;14.068;2023-02-28T03:07:02;4.07;;;2.47;;
52318;SDS011;38258;51.148;14.068;2023-02-28T03:09:32;5.00;;;2.75;;
52318;SDS011;38258;51.148;14.068;2023-02-28T03:12:00;1.80;;;1.70;;
52318;SDS011;38258;51.148;14.068;2023-02-28T03:14:31;2.45;;;2.22;;
52318;SDS011;38258;51.148;14.068;2023-02-28T03:17:13;2.35;;;2.03;;
52318;SDS011;38258;51.148;14.068;2023-02-28T03:19:52;2.42;;;1.83;;
52318;SDS011;38258;51.148;14.068;2023-02-28T03:22:33;1.98;;;1.85;;
52318;SDS011;38258;51.148;14.068;2023-02-28T03:25:20;3.17;;;2.45;;
52318;SDS011;38258;51.148;14.068;2023-02-28T03:27:55;5.32;;;2.13;;
52318;SDS011;38258;51.148;14.068;2023-02-28T03:30:27;2.63;;;2.38;;
52318;SDS011;38258;51.148;14.068;2023-02-28T03:33:00;2.60;;;1.67;;
52318;SDS011;38258;51.148;14.068;2023-02-28T03:35:33;3.15;;;1.90;;
52318;SDS011;38258;51.148;14.068;2023-02-28T03:38:05;6.75;;;2.13;;
52318;SDS011;38258;51.148;14.068;2023-02-28T03:40:39;4.35;;;2.00;;
52318;SDS011;38258;51.148;14.068;2023-02-28T03:43:11;4.53;;;2.72;;
52318;SDS011;38258;51.148;14.068;2023-02-28T03:45:42;3.17;;;2.53;;
52318;SDS011;38258;51.148;14.068;2023-02-28T03:48:13;2.83;;;2.33;;
52318;SDS011;38258;51.148;14.068;2023-02-28T03:50:43;5.18;;;2.17;;
52318;SDS011;38258;51.148;14.068;2023-02-28T03:53:22;4.22;;;2.88;;
52318;SDS011;38258;51.148;14.068;2023-02-28T03:55:54;3.85;;;2.53;;
52318;SDS011;38258;51.148;14.068;2023-02-28T03:58:26;5.65;;;2.15;;
52318;SDS011;38258;51.148;14.068;2023-02-28T04:00:59;4.00;;;2.58;;
52318;SDS011;38258;51.148;14.068;2023-02-28T04:03:34;6.53;;;2.67;;
52318;SDS011;38258;51.148;14.068;2023-02-28T04:06:01;10.52;;;2.97;;
52318;SDS011;38258;51.148;14.068;2023-02-28T04:08:31;2.83;;;1.95;;
52318;SDS011;38258;51.148;14.068;2023-02-28T04:10:59;5.68;;;3.25;;
52318;SDS011;38258;51.148;14.068;2023-02-28T04:13:29;3.10;;;1.67;;
52318;SDS011;38258;51.148;14.068;2023-02-28T04:15:56;3.20;;;2.63;;
52318;SDS011;38258;51.148;14.068;2023-02-28T04:18:23;6.90;;;2.95;;
52318;SDS011;38258;51.148;14.068;2023-02-28T04:20:49;4.68;;;2.13;;
52318;SDS011;38258;51.148;14.068;2023-02-28T04:23:16;3.53;;;2.78;;
52318;SDS011;38258;51.148;14.068;2023-02-28T04:25:44;3.60;;;2.20;;
52318;SDS011;38258;51.148;14.068;2023-02-28T04:28:10;3.80;;;2.53;;
52318;SDS011;38258;51.148;14.068;2023-02-28T04:30:37;3.40;;;2.25;;
52318;SDS011;38258;51.148;14.068;2023-02-28T04:33:04;2.55;;;2.03;;
52318;SDS011;38258;51.148;14.068;2023-02-28T04:35:31;3.47;;;1.90;;
52318;SDS011;38258;51.148;14.068;2023-02-28T04:37:58;6.32;;;3.08;;
52318;SDS011;38258;51.148;14.068;2023-02-28T04:40:25;7.57;;;2.13;;
52318;SDS011;38258;51.148;14.068;2023-02-28T04:42:53;4.68;;;2.28;;
52318;SDS011;38258;51.148;14.068;2023-02-28T04:45:19;6.80;;;2.17;;
52318;SDS011;38258;51.148;14.068;2023-02-28T04:47:46;5.15;;;2.35;;
52318;SDS011;38258;51.148;14.068;2023-02-28T04:50:22;4.20;;;2.35;;
52318;SDS011;38258;51.148;14.068;2023-02-28T04:52:49;4.82;;;3.55;;
52318;SDS011;38258;51.148;14.068;2023-02-28T04:55:15;2.38;;;1.75;;
52318;SDS011;38258;51.148;14.068;2023-02-28T04:57:42;4.95;;;2.47;;
52318;SDS011;38258;51.148;14.068;2023-02-28T05:00:11;2.15;;;1.75;;
52318;SDS011;38258;51.148;14.068;2023-02-28T05:02:41;3.58;;;2.40;;
52318;SDS011;38258;51.148;14.068;2023-02-28T05:05:08;5.35;;;2.22;;
52318;SDS011;38258;51.148;14.068;2023-02-28T05:07:35;2.42;;;2.05;;
52318;SDS011;38258;51.148;14.068;2023-02-28T05:10:01;2.20;;;1.98;;
52318;SDS011;38258;51.148;14.068;2023-02-28T05:12:28;3.63;;;2.25;;
52318;SDS011;38258;51.148;14.068;2023-02-28T05:14:55;5.72;;;2.88;;
52318;SDS011;38258;51.148;14.068;2023-02-28T05:17:23;5.00;;;2.25;;
52318;SDS011;38258;51.148;14.068;2023-02-28T05:19:49;7.15;;;2.85;;
52318;SDS011;38258;51.148;14.068;2023-02-28T05:22:16;5.65;;;4.07;;
52318;SDS011;38258;51.148;14.068;2023-02-28T05:24:43;2.85;;;2.55;;
52318;SDS011;38258;51.148;14.068;2023-02-28T05:27:09;1.95;;;1.45;;
52318;SDS011;38258;51.148;14.068;2023-02-28T05:29:36;5.82;;;2.63;;
52318;SDS011;38258;51.148;14.068;2023-02-28T05:32:07;5.03;;;1.88;;
52318;SDS011;38258;51.148;14.068;2023-02-28T05:34:37;9.45;;;2.88;;
52318;SDS011;38258;51.148;14.068;2023-02-28T05:37:04;4.35;;;2.03;;
52318;SDS011;38258;51.148;14.068;2023-02-28T05:39:32;4.68;;;2.60;;
52318;SDS011;38258;51.148;14.068;2023-02-28T05:41:59;3.92;;;2.53;;
52318;SDS011;38258;51.148;14.068;2023-02-28T05:44:25;4.43;;;2.83;;
52318;SDS011;38258;51.148;14.068;2023-02-28T05:46:52;3.00;;;2.58;;
52318;SDS011;38258;51.148;14.068;2023-02-28T05:49:19;2.35;;;2.17;;
52318;SDS011;38258;51.148;14.068;2023-02-28T05:51:47;4.53;;;2.17;;
52318;SDS011;38258;51.148;14.068;2023-02-28T05:54:20;24.30;;;2.92;;
52318;SDS011;38258;51.148;14.068;2023-02-28T05:56:47;2.53;;;2.33;;
52318;SDS011;38258;51.148;14.068;2023-02-28T05:59:37;3.22;;;2.83;;
52318;SDS011;38258;51.148;14.068;2023-02-28T06:02:05;2.80;;;2.55;;
52318;SDS011;38258;51.148;14.068;2023-02-28T06:04:32;4.10;;;3.13;;
52318;SDS011;38258;51.148;14.068;2023-02-28T06:07:00;5.35;;;3.30;;
52318;SDS011;38258;51.148;14.068;2023-02-28T06:09:34;2.75;;;2.15;;
52318;SDS011;38258;51.148;14.068;2023-02-28T06:12:01;3.75;;;3.38;;
52318;SDS011;38258;51.148;14.068;2023-02-28T06:14:30;4.30;;;2.38;;
52318;SDS011;38258;51.148;14.068;2023-02-28T06:16:58;2.47;;;2.00;;
52318;SDS011;38258;51.148;14.068;2023-02-28T06:19:25;4.45;;;3.10;;
52318;SDS011;38258;51.148;14.068;2023-02-28T06:21:53;4.75;;;2.65;;
52318;SDS011;38258;51.148;14.068;2023-02-28T06:24:24;4.32;;;2.50;;
52318;SDS011;38258;51.148;14.068;2023-02-28T06:26:53;9.48;;;2.88;;
52318;SDS011;38258;51.148;14.068;2023-02-28T06:29:19;4.97;;;3.50;;
52318;SDS011;38258;51.148;14.068;2023-02-28T06:31:46;5.22;;;2.75;;
52318;SDS011;38258;51.148;14.068;2023-02-28T06:34:13;4.63;;;3.45;;
52318;SDS011;38258;51.148;14.068;2023-02-28T06:36:40;6.00;;;3.58;;
52318;SDS011;38258;51.148;14.068;2023-02-28T06:39:08;9.07;;;5.40;;
52318;SDS011;38258;51.148;14.068;2023-02-28T06:41:37;8.50;;;4.13;;
52318;SDS011;38258;51.148;14.068;2023-02-28T06:44:05;7.80;;;4.60;;
52318;SDS011;38258;51.148;14.068;2023-02-28T06:46:38;11.02;;;4.15;;
52318;SDS011;38258;51.148;14.068;2023-02-28T06:49:05;4.85;;;2.47;;
52318;SDS011;38258;51.148;14.068;2023-02-28T06:51:33;5.40;;;4.38;;
52318;SDS011;38258;51.148;14.068;2023-02-28T06:54:00;8.50;;;4.00;;
52318;SDS011;38258;51.148;14.068;2023-02-28T06:56:27;4.20;;;3.20;;
52318;SDS011;38258;51.148;14.068;2023-02-28T06:58:55;4.78;;;2.17;;
52318;SDS011;38258;51.148;14.068;2023-02-28T07:01:22;8.43;;;3.20;;
52318;SDS011;38258;51.148;14.068;2023-02-28T07:03:49;7.28;;;2.97;;
52318;SDS011;38258;51.148;14.068;2023-02-28T07:06:17;6.43;;;3.20;;
52318;SDS011;38258;51.148;14.068;2023-02-28T07:08:43;8.43;;;4.20;;
52318;SDS011;38258;51.148;14.068;2023-02-28T07:11:10;7.22;;;3.70;;
52318;SDS011;38258;51.148;14.068;2023-02-28T07:13:37;6.70;;;3.10;;
52318;SDS011;38258;51.148;14.068;2023-02-28T07:16:05;6.72;;;3.40;;
52318;SDS011;38258;51.148;14.068;2023-02-28T07:18:34;7.43;;;4.35;;
52318;SDS011;38258;51.148;14.068;2023-02-28T07:21:01;14.50;;;6.38;;
52318;SDS011;38258;51.148;14.068;2023-02-28T07:23:28;6.38;;;4.18;;
52318;SDS011;38258;51.148;14.068;2023-02-28T07:25:55;12.05;;;5.15;;
52318;SDS011;38258;51.148;14.068;2023-02-28T07:28:22;8.10;;;4.30;;
52318;SDS011;38258;51.148;14.068;2023-02-28T07:30:48;13.85;;;5.22;;
52318;SDS011;38258;51.148;14.068;2023-02-28T07:33:16;5.03;;;3.67;;
52318;SDS011;38258;51.148;14.068;2023-02-28T07:35:43;11.45;;;5.07;;
52318;SDS011;38258;51.148;14.068;2023-02-28T07:38:10;11.80;;;5.78;;
52318;SDS011;38258;51.148;14.068;2023-02-28T07:40:38;13.65;;;6.00;;
52318;SDS011;38258;51.148;14.068;2023-02-28T07:43:05;10.48;;;5.13;;
52318;SDS011;38258;51.148;14.068;2023-02-28T07:45:32;9.98;;;4.80;;
52318;SDS011;38258;51.148;14.068;2023-02-28T07:47:59;7.15;;;4.43;;
52318;SDS011;38258;51.148;14.068;2023-02-28T07:50:27;12.20;;;5.05;;
52318;SDS011;38258;51.148;14.068;2023-02-28T07:52:55;8.13;;;4.85;;
52318;SDS011;38258;51.148;14.068;2023-02-28T07:55:22;12.18;;;5.50;;
52318;SDS011;38258;51.148;14.068;2023-02-28T07:57:49;9.57;;;4.85;;
52318;SDS011;38258;51.148;14.068;2023-02-28T08:00:15;9.05;;;4.80;;
52318;SDS011;38258;51.148;14.068;2023-02-28T08:02:42;10.57;;;5.25;;
52318;SDS011;38258;51.148;14.068;2023-02-28T08:05:09;7.78;;;5.03;;
52318;SDS011;38258;51.148;14.068;2023-02-28T08:07:37;8.27;;;4.38;;
52318;SDS011;38258;51.148;14.068;2023-02-28T08:10:04;8.75;;;3.75;;
52318;SDS011;38258;51.148;14.068;2023-02-28T08:12:31;7.78;;;4.05;;
52318;SDS011;38258;51.148;14.068;2023-02-28T08:14:58;8.50;;;5.03;;
52318;SDS011;38258;51.148;14.068;2023-02-28T08:17:24;7.15;;;3.90;;
52318;SDS011;38258;51.148;14.068;2023-02-28T08:19:51;8.15;;;4.05;;
52318;SDS011;38258;51.148;14.068;2023-02-28T08:22:18;7.75;;;4.30;;
52318;SDS011;38258;51.148;14.068;2023-02-28T08:24:45;7.10;;;3.45;;
52318;SDS011;38258;51.148;14.068;2023-02-28T08:27:12;9.55;;;4.57;;
52318;SDS011;38258;51.148;14.068;2023-02-28T08:29:39;9.13;;;4.38;;
52318;SDS011;38258;51.148;14.068;2023-02-28T08:32:05;8.60;;;4.13;;
52318;SDS011;38258;51.148;14.068;2023-02-28T08:34:32;8.35;;;3.65;;
52318;SDS011;38258;51.148;14.068;2023-02-28T08:36:59;6.55;;;3.15;;
52318;SDS011;38258;51.148;14.068;2023-02-28T08:39:25;9.77;;;3.47;;
52318;SDS011;38258;51.148;14.068;2023-02-28T08:41:53;5.85;;;3.13;;
52318;SDS011;38258;51.148;14.068;2023-02-28T08:44:20;8.20;;;4.28;;
52318;SDS011;38258;51.148;14.068;2023-02-28T08:46:48;5.88;;;3.72;;
52318;SDS011;38258;51.148;14.068;2023-02-28T08:49:15;8.52;;;3.40;;
52318;SDS011;38258;51.148;14.068;2023-02-28T08:51:41;5.30;;;3.38;;
52318;SDS011;38258;51.148;14.068;2023-02-28T08:54:08;5.30;;;2.95;;
52318;SDS011;38258;51.148;14.068;2023-02-28T08:56:37;5.38;;;3.40;;
52318;SDS011;38258;51.148;14.068;2023-02-28T08:59:05;9.10;;;4.07;;
52318;SDS011;38258;51.148;14.068;2023-02-28T09:01:32;7.18;;;4.25;;
52318;SDS011;38258;51.148;14.068;2023-02-28T09:03:59;8.32;;;4.60;;
52318;SDS011;38258;51.148;14.068;2023-02-28T09:06:27;9.25;;;3.85;;
52318;SDS011;38258;51.148;14.068;2023-02-28T09:08:55;7.68;;;3.83;;
52318;SDS011;38258;51.148;14.068;2023-02-28T09:11:23;5.05;;;3.30;;
52318;SDS011;38258;51.148;14.068;2023-02-28T09:13:50;8.23;;;4.55;;
52318;SDS011;38258;51.148;14.068;2023-02-28T09:16:18;5.60;;;3.78;;
52318;SDS011;38258;51.148;14.068;2023-02-28T09:18:45;12.10;;;5.15;;
52318;SDS011;38258;51.148;14.068;2023-02-28T09:21:12;6.88;;;3.42;;
52318;SDS011;38258;51.148;14.068;2023-02-28T09:23:41;10.10;;;3.45;;
52318;SDS011;38258;51.148;14.068;2023-02-28T09:26:12;8.45;;;4.22;;
52318;SDS011;38258;51.148;14.068;2023-02-28T09:28:40;7.20;;;3.72;;
52318;SDS011;38258;51.148;14.068;2023-02-28T09:31:10;7.00;;;3.55;;
52318;SDS011;38258;51.148;14.068;2023-02-28T09:33:39;9.57;;;3.92;;
52318;SDS011;38258;51.148;14.068;2023-02-28T09:36:06;8.38;;;4.15;;
52318;SDS011;38258;51.148;14.068;2023-02-28T09:38:33;7.22;;;3.10;;
52318;SDS011;38258;51.148;14.068;2023-02-28T09:41:01;9.10;;;5.38;;
52318;SDS011;38258;51.148;14.068;2023-02-28T09:43:36;8.60;;;4.40;;
52318;SDS011;38258;51.148;14.068;2023-02-28T09:46:08;7.72;;;4.03;;
52318;SDS011;38258;51.148;14.068;2023-02-28T09:48:43;7.60;;;4.00;;
52318;SDS011;38258;51.148;14.068;2023-02-28T09:51:14;8.32;;;3.80;;
52318;SDS011;38258;51.148;14.068;2023-02-28T09:53:50;6.00;;;2.95;;
52318;SDS011;38258;51.148;14.068;2023-02-28T09:56:18;9.68;;;4.45;;
52318;SDS011;38258;51.148;14.068;2023-02-28T10:01:21;11.30;;;4.82;;
52318;SDS011;38258;51.148;14.068;2023-02-28T10:03:57;9.45;;;4.70;;
52318;SDS011;38258;51.148;14.068;2023-02-28T10:06:28;6.63;;;3.00;;
52318;SDS011;38258;51.148;14.068;2023-02-28T10:09:00;3.73;;;2.53;;
52318;SDS011;38258;51.148;14.068;2023-02-28T10:11:32;6.38;;;3.65;;
52318;SDS011;38258;51.148;14.068;2023-02-28T10:14:02;9.52;;;3.75;;
52318;SDS011;38258;51.148;14.068;2023-02-28T10:16:36;6.47;;;4.10;;
52318;SDS011;38258;51.148;14.068;2023-02-28T10:19:09;8.30;;;4.38;;
52318;SDS011;38258;51.148;14.068;2023-02-28T10:21:41;6.68;;;3.80;;
52318;SDS011;38258;51.148;14.068;2023-02-28T10:24:15;6.57;;;4.25;;
52318;SDS011;38258;51.148;14.068;2023-02-28T10:26:49;7.57;;;4.82;;
52318;SDS011;38258;51.148;14.068;2023-02-28T10:29:22;8.95;;;3.60;;
52318;SDS011;38258;51.148;14.068;2023-02-28T10:31:49;6.00;;;3.15;;
52318;SDS011;38258;51.148;14.068;2023-02-28T10:34:17;10.40;;;4.25;;
52318;SDS011;38258;51.148;14.068;2023-02-28T10:36:44;8.25;;;4.28;;
52318;SDS011;38258;51.148;14.068;2023-02-28T10:42:18;5.55;;;2.05;;
52318;SDS011;38258;51.148;14.068;2023-02-28T10:47:30;6.40;;;3.20;;
52318;SDS011;38258;51.148;14.068;2023-02-28T10:50:01;8.25;;;4.47;;
52318;SDS011;38258;51.148;14.068;2023-02-28T10:52:33;5.10;;;3.45;;
52318;SDS011;38258;51.148;14.068;2023-02-28T10:55:18;11.50;;;4.85;;
52318;SDS011;38258;51.148;14.068;2023-02-28T10:57:48;11.00;;;4.50;;
52318;SDS011;38258;51.148;14.068;2023-02-28T11:00:16;7.35;;;4.07;;
52318;SDS011;38258;51.148;14.068;2023-02-28T11:02:45;7.20;;;4.38;;
52318;SDS011;38258;51.148;14.068;2023-02-28T11:05:27;6.53;;;3.45;;
52318;SDS011;38258;51.148;14.068;2023-02-28T11:07:57;12.02;;;5.15;;
52318;SDS011;38258;51.148;14.068;2023-02-28T11:10:31;9.38;;;3.83;;
52318;SDS011;38258;51.148;14.068;2023-02-28T11:13:00;5.45;;;3.47;;
52318;SDS011;38258;51.148;14.068;2023-02-28T11:15:29;13.07;;;5.10;;
52318;SDS011;38258;51.148;14.068;2023-02-28T11:17:59;4.43;;;2.63;;
52318;SDS011;38258;51.148;14.068;2023-02-28T11:20:29;6.38;;;3.63;;
52318;SDS011;38258;51.148;14.068;2023-02-28T11:22:59;5.80;;;3.72;;
52318;SDS011;38258;51.148;14.068;2023-02-28T11:25:29;9.07;;;4.53;;
52318;SDS011;38258;51.148;14.068;2023-02-28T11:27:58;8.32;;;3.70;;
52318;SDS011;38258;51.148;14.068;2023-02-28T11:30:31;10.07;;;4.72;;
52318;SDS011;38258;51.148;14.068;2023-02-28T11:33:00;16.42;;;5.30;;
52318;SDS011;38258;51.148;14.068;2023-02-28T11:35:46;10.75;;;5.45;;
52318;SDS011;38258;51.148;14.068;2023-02-28T11:38:15;9.52;;;5.05;;
52318;SDS011;38258;51.148;14.068;2023-02-28T11:40:45;2.15;;;1.95;;
52318;SDS011;38258;51.148;14.068;2023-02-28T11:43:21;8.63;;;3.53;;
52318;SDS011;38258;51.148;14.068;2023-02-28T11:46:01;14.55;;;5.20;;
52318;SDS011;38258;51.148;14.068;2023-02-28T11:48:42;7.10;;;4.20;;
52318;SDS011;38258;51.148;14.068;2023-02-28T11:51:21;2.92;;;2.38;;
52318;SDS011;38258;51.148;14.068;2023-02-28T11:53:52;3.23;;;2.10;;
52318;SDS011;38258;51.148;14.068;2023-02-28T11:56:33;5.40;;;2.47;;
52318;SDS011;38258;51.148;14.068;2023-02-28T12:02:16;5.90;;;4.22;;
52318;SDS011;38258;51.148;14.068;2023-02-28T12:04:52;11.82;;;4.95;;
52318;SDS011;38258;51.148;14.068;2023-02-28T12:07:31;5.10;;;2.78;;
52318;SDS011;38258;51.148;14.068;2023-02-28T12:10:10;8.63;;;4.45;;
52318;SDS011;38258;51.148;14.068;2023-02-28T12:12:48;5.28;;;3.45;;
52318;SDS011;38258;51.148;14.068;2023-02-28T12:18:21;8.18;;;4.05;;
52318;SDS011;38258;51.148;14.068;2023-02-28T12:20:59;13.03;;;5.73;;
52318;SDS011;38258;51.148;14.068;2023-02-28T12:23:43;9.20;;;5.05;;
52318;SDS011;38258;51.148;14.068;2023-02-28T12:26:29;6.28;;;4.00;;
52318;SDS011;38258;51.148;14.068;2023-02-28T12:29:04;1.30;;;1.13;;
52318;SDS011;38258;51.148;14.068;2023-02-28T12:31:40;6.72;;;3.78;;
52318;SDS011;38258;51.148;14.068;2023-02-28T12:34:12;4.30;;;3.28;;
52318;SDS011;38258;51.148;14.068;2023-02-28T12:36:42;7.70;;;4.25;;
52318;SDS011;38258;51.148;14.068;2023-02-28T12:39:12;11.75;;;5.65;;
52318;SDS011;38258;51.148;14.068;2023-02-28T12:41:46;10.35;;;5.53;;
52318;SDS011;38258;51.148;14.068;2023-02-28T12:44:19;8.70;;;4.93;;
52318;SDS011;38258;51.148;14.068;2023-02-28T12:46:54;15.27;;;5.03;;
52318;SDS011;38258;51.148;14.068;2023-02-28T12:49:27;5.55;;;2.85;;
52318;SDS011;38258;51.148;14.068;2023-02-28T12:51:58;10.50;;;5.47;;
52318;SDS011;38258;51.148;14.068;2023-02-28T12:54:29;9.45;;;5.35;;
52318;SDS011;38258;51.148;14.068;2023-02-28T12:57:02;8.10;;;4.55;;
52318;SDS011;38258;51.148;14.068;2023-02-28T12:59:37;3.13;;;2.35;;
52318;SDS011;38258;51.148;14.068;2023-02-28T13:08:27;5.43;;;3.58;;
52318;SDS011;38258;51.148;14.068;2023-02-28T13:11:33;5.18;;;2.53;;
52318;SDS011;38258;51.148;14.068;2023-02-28T13:14:05;5.38;;;1.90;;
52318;SDS011;38258;51.148;14.068;2023-02-28T13:22:05;2.33;;;2.20;;
52318;SDS011;38258;51.148;14.068;2023-02-28T13:24:44;1.95;;;1.83;;
52318;SDS011;38258;51.148;14.068;2023-02-28T13:33:17;11.05;;;4.85;;
52318;SDS011;38258;51.148;14.068;2023-02-28T13:36:00;12.52;;;6.03;;
52318;SDS011;38258;51.148;14.068;2023-02-28T13:38:34;9.98;;;4.57;;
52318;SDS011;38258;51.148;14.068;2023-02-28T13:44:09;5.88;;;3.67;;
52318;SDS011;38258;51.148;14.068;2023-02-28T13:49:37;4.88;;;3.55;;
52318;SDS011;38258;51.148;14.068;2023-02-28T13:52:07;5.75;;;2.92;;
52318;SDS011;38258;51.148;14.068;2023-02-28T13:54:45;7.93;;;3.78;;
52318;SDS011;38258;51.148;14.068;2023-02-28T13:57:27;8.20;;;4.93;;
52318;SDS011;38258;51.148;14.068;2023-02-28T14:00:14;9.35;;;4.20;;
52318;SDS011;38258;51.148;14.068;2023-02-28T14:02:54;6.00;;;2.85;;
52318;SDS011;38258;51.148;14.068;2023-02-28T14:05:37;6.50;;;3.97;;
52318;SDS011;38258;51.148;14.068;2023-02-28T14:08:06;9.48;;;4.80;;
52318;SDS011;38258;51.148;14.068;2023-02-28T14:10:41;8.75;;;5.22;;
52318;SDS011;38258;51.148;14.068;2023-02-28T14:13:14;8.55;;;4.32;;
52318;SDS011;38258;51.148;14.068;2023-02-28T14:18:26;7.72;;;3.53;;
52318;SDS011;38258;51.148;14.068;2023-02-28T14:20:57;11.50;;;5.30;;
52318;SDS011;38258;51.148;14.068;2023-02-28T14:23:34;8.93;;;4.18;;
52318;SDS011;38258;51.148;14.068;2023-02-28T14:26:14;9.82;;;5.18;;
52318;SDS011;38258;51.148;14.068;2023-02-28T14:28:56;9.48;;;4.88;;
52318;SDS011;38258;51.148;14.068;2023-02-28T14:31:37;6.40;;;4.35;;
52318;SDS011;38258;51.148;14.068;2023-02-28T14:34:22;10.05;;;4.55;;
52318;SDS011;38258;51.148;14.068;2023-02-28T14:36:59;13.68;;;5.20;;
52318;SDS011;38258;51.148;14.068;2023-02-28T14:39:27;8.90;;;4.90;;
52318;SDS011;38258;51.148;14.068;2023-02-28T14:41:56;8.23;;;3.88;;
52318;SDS011;38258;51.148;14.068;2023-02-28T14:44:28;6.30;;;3.33;;
52318;SDS011;38258;51.148;14.068;2023-02-28T14:46:57;10.52;;;5.13;;
52318;SDS011;38258;51.148;14.068;2023-02-28T14:49:29;10.90;;;5.43;;
52318;SDS011;38258;51.148;14.068;2023-02-28T14:52:06;9.10;;;4.80;;
52318;SDS011;38258;51.148;14.068;2023-02-28T14:54:39;7.50;;;3.70;;
52318;SDS011;38258;51.148;14.068;2023-02-28T14:57:19;8.55;;;5.05;;
52318;SDS011;38258;51.148;14.068;2023-02-28T14:59:56;7.40;;;4.75;;
52318;SDS011;38258;51.148;14.068;2023-02-28T15:02:25;9.15;;;4.05;;
52318;SDS011;38258;51.148;14.068;2023-02-28T15:04:57;10.27;;;3.63;;
52318;SDS011;38258;51.148;14.068;2023-02-28T15:07:25;7.10;;;3.50;;
52318;SDS011;38258;51.148;14.068;2023-02-28T15:10:09;9.80;;;5.25;;
52318;SDS011;38258;51.148;14.068;2023-02-28T15:12:39;13.43;;;5.03;;
52318;SDS011;38258;51.148;14.068;2023-02-28T15:15:14;5.68;;;3.63;;
52318;SDS011;38258;51.148;14.068;2023-02-28T15:17:43;7.13;;;3.65;;
52318;SDS011;38258;51.148;14.068;2023-02-28T15:20:12;9.25;;;5.10;;
52318;SDS011;38258;51.148;14.068;2023-02-28T15:22:41;10.32;;;5.03;;
52318;SDS011;38258;51.148;14.068;2023-02-28T15:25:09;10.05;;;4.45;;
52318;SDS011;38258;51.148;14.068;2023-02-28T15:27:40;7.47;;;4.63;;
52318;SDS011;38258;51.148;14.068;2023-02-28T15:30:14;11.95;;;5.22;;
52318;SDS011;38258;51.148;14.068;2023-02-28T15:32:44;8.20;;;4.35;;
52318;SDS011;38258;51.148;14.068;2023-02-28T15:35:18;12.30;;;5.82;;
52318;SDS011;38258;51.148;14.068;2023-02-28T15:37:47;10.65;;;4.70;;